Time;durP1;ratioP1;P1;durP2;ratioP2;P2;SDS_P1;SDS_P2;PMS_P1;PMS_P2;Temp;Humidity;BMP_temperature;BMP_pressure;BME280_temperature;BME280_humidity;BME280_pressure;Samples;Min_cycle;Max_cycle;Signal;HPM_P1;HPM_P2
2023/11/12 00:01:12;;;;;;;1.33;1.00;;;18.30;66.30;;;;;;6102499;23;20141;-80
2023/11/12 00:03:37;;;;;;;1.10;1.00;;;18.30;66.40;;;;;;6178567;23;20179;-80
2023/11/12 00:06:05;;;;;;;1.23;1.13;;;18.30;66.40;;;;;;6204000;23;20535;-80
2023/11/12 00:08:32;;;;;;;1.23;1.13;;;18.30;66.40;;;;;;6202904;23;20141;-80
2023/11/12 00:10:58;;;;;;;1.27;1.13;;;18.20;66.40;;;;;;6179005;23;20166;-80
2023/11/12 00:13:26;;;;;;;1.13;1.02;;;18.20;66.40;;;;;;6202714;23;20133;-80
2023/11/12 00:15:53;;;;;;;1.23;1.13;;;18.20;66.30;;;;;;6204226;23;20163;-80
2023/11/12 00:18:23;;;;;;;1.35;1.25;;;18.30;66.50;;;;;;6202578;23;20165;-81
2023/11/12 00:20:51;;;;;;;1.63;1.33;;;18.20;66.30;;;;;;6152737;23;20191;-80
2023/11/12 00:23:23;;;;;;;1.30;1.20;;;18.20;66.50;;;;;;6178771;23;20129;-80
2023/11/12 00:25:50;;;;;;;1.10;1.00;;;18.30;66.40;;;;;;6178825;23;20185;-81
2023/11/12 00:28:17;;;;;;;1.05;1.05;;;18.30;66.40;;;;;;6153319;23;20165;-80
2023/11/12 00:30:48;;;;;;;1.83;1.30;;;18.20;66.40;;;;;;6203333;23;20186;-81
2023/11/12 00:33:13;;;;;;;0.90;0.90;;;18.20;66.40;;;;;;6176751;23;20207;-79
2023/11/12 00:35:39;;;;;;;1.10;1.00;;;18.20;66.40;;;;;;6202532;23;20144;-79
2023/11/12 00:38:05;;;;;;;1.23;1.13;;;18.20;66.40;;;;;;6102711;23;20175;-79
2023/11/12 00:40:32;;;;;;;1.30;1.20;;;18.20;66.30;;;;;;6203105;23;20133;-79
2023/11/12 00:43:02;;;;;;;1.42;1.20;;;18.30;66.40;;;;;;6102424;23;20568;-79
2023/11/12 00:45:29;;;;;;;1.13;1.02;;;18.20;66.30;;;;;;6203540;23;20226;-79
2023/11/12 00:47:57;;;;;;;1.33;1.23;;;18.20;66.50;;;;;;6179900;23;20224;-79
2023/11/12 00:50:22;;;;;;;1.88;1.10;;;18.20;66.40;;;;;;6178113;23;20144;-79
2023/11/12 00:52:48;;;;;;;1.25;1.15;;;18.20;66.50;;;;;;6204261;23;20133;-80
2023/11/12 00:55:15;;;;;;;1.13;1.02;;;18.20;66.40;;;;;;6154122;23;20163;-80
2023/11/12 00:57:42;;;;;;;1.40;1.30;;;18.20;66.60;;;;;;6204020;23;20141;-79
2023/11/12 01:00:09;;;;;;;1.48;1.38;;;18.10;66.40;;;;;;6202484;23;20129;-80
2023/11/12 01:02:34;;;;;;;1.45;1.08;;;18.20;66.40;;;;;;6154419;23;20624;-79
2023/11/12 01:05:01;;;;;;;1.38;1.23;;;18.20;66.40;;;;;;6179842;23;20133;-79
2023/11/12 01:07:27;;;;;;;1.17;1.08;;;18.20;66.40;;;;;;6154430;23;20263;-80
2023/11/12 01:09:52;;;;;;;1.30;1.20;;;18.20;66.50;;;;;;6178469;23;20160;-81
2023/11/12 01:12:19;;;;;;;1.02;0.93;;;18.20;66.50;;;;;;6103345;23;20133;-81
2023/11/12 01:14:46;;;;;;;2.08;1.20;;;18.20;66.50;;;;;;6203436;23;20138;-79
2023/11/12 01:17:12;;;;;;;1.77;1.30;;;18.20;66.50;;;;;;6179653;23;20140;-79
2023/11/12 01:19:39;;;;;;;1.38;1.27;;;18.20;66.50;;;;;;6179267;23;20173;-79
2023/11/12 01:22:11;;;;;;;1.10;1.00;;;18.20;66.60;;;;;;6180157;23;20624;-79
2023/11/12 01:24:37;;;;;;;1.05;1.02;;;18.20;66.50;;;;;;6178836;23;20610;-80
2023/11/12 01:27:08;;;;;;;1.20;1.10;;;18.20;66.70;;;;;;6181000;23;20153;-79
2023/11/12 01:29:41;;;;;;;1.80;1.45;;;18.10;66.50;;;;;;6154326;23;20161;-79
2023/11/12 01:32:06;;;;;;;1.80;1.10;;;18.20;66.40;;;;;;6153857;23;20188;-80
2023/11/12 01:34:32;;;;;;;1.20;1.10;;;18.20;66.40;;;;;;6205710;23;20149;-79
2023/11/12 01:37:04;;;;;;;1.20;1.10;;;18.10;66.30;;;;;;6205565;23;20134;-79
2023/11/12 01:39:34;;;;;;;1.70;1.10;;;18.20;66.50;;;;;;6153729;23;20619;-78
2023/11/12 01:42:11;;;;;;;1.15;1.05;;;18.20;66.40;;;;;;6178709;23;20185;-79
2023/11/12 01:44:42;;;;;;;1.42;1.33;;;18.20;66.50;;;;;;6180633;23;20207;-82
2023/11/12 01:47:09;;;;;;;1.20;1.10;;;18.20;66.70;;;;;;6103446;23;20136;-81
2023/11/12 01:49:35;;;;;;;1.17;1.08;;;18.20;66.50;;;;;;6155266;23;20164;-79
2023/11/12 01:52:04;;;;;;;1.50;1.20;;;18.20;66.60;;;;;;6179412;23;20173;-79
2023/11/12 01:54:35;;;;;;;1.38;1.25;;;18.20;66.50;;;;;;6203307;23;20141;-80
2023/11/12 01:57:02;;;;;;;1.30;1.20;;;18.20;66.50;;;;;;6154357;23;20155;-79
2023/11/12 01:59:34;;;;;;;1.20;1.10;;;18.20;66.70;;;;;;6179856;23;20229;-79
2023/11/12 02:02:01;;;;;;;1.30;1.20;;;18.20;66.60;;;;;;6157842;23;20145;-80
2023/11/12 02:04:27;;;;;;;1.38;1.27;;;18.20;67.40;;;;;;6204590;23;20179;-81
2023/11/12 02:06:52;;;;;;;1.10;0.90;;;18.20;66.70;;;;;;6179480;23;20137;-79
2023/11/12 02:09:19;;;;;;;1.48;1.38;;;18.20;66.50;;;;;;6204060;23;20251;-80
2023/11/12 02:11:46;;;;;;;1.35;1.15;;;18.20;66.60;;;;;;6203177;23;20223;-80
2023/11/12 02:14:12;;;;;;;1.15;0.95;;;18.20;66.70;;;;;;6203586;23;20472;-80
2023/11/12 02:16:39;;;;;;;1.40;1.30;;;18.10;66.50;;;;;;6102463;23;20137;-80
2023/11/12 02:19:04;;;;;;;1.10;1.00;;;18.20;66.50;;;;;;6102942;23;20221;-80
2023/11/12 02:21:32;;;;;;;1.00;1.00;;;18.20;66.70;;;;;;6204254;23;20157;-79
2023/11/12 02:23:58;;;;;;;1.20;1.10;;;18.20;66.40;;;;;;6103366;23;20183;-81
2023/11/12 02:26:24;;;;;;;1.30;1.20;;;18.10;66.60;;;;;;6102877;23;20159;-80
2023/11/12 02:28:50;;;;;;;1.85;1.20;;;18.20;66.50;;;;;;6103001;23;20137;-79
2023/11/12 02:31:16;;;;;;;1.23;1.13;;;18.20;66.70;;;;;;6203224;23;20199;-80
2023/11/12 02:33:43;;;;;;;1.58;1.30;;;18.10;66.80;;;;;;6102694;23;20196;-80
2023/11/12 02:36:14;;;;;;;1.20;1.10;;;18.10;66.70;;;;;;6203448;23;20153;-80
2023/11/12 02:38:39;;;;;;;1.40;1.30;;;18.20;66.80;;;;;;6102000;23;20571;-80
2023/11/12 02:41:09;;;;;;;1.08;1.08;;;18.10;66.50;;;;;;6102127;23;20138;-80
2023/11/12 02:43:35;;;;;;;1.27;1.17;;;18.10;66.60;;;;;;6199793;23;20133;-80
2023/11/12 02:46:01;;;;;;;1.23;1.10;;;18.10;66.80;;;;;;6102003;23;20133;-80
2023/11/12 02:48:29;;;;;;;1.30;1.20;;;18.20;66.70;;;;;;6178792;23;20168;-80
2023/11/12 02:50:54;;;;;;;1.33;1.23;;;18.10;66.70;;;;;;6203458;23;20142;-81
2023/11/12 02:53:21;;;;;;;1.42;1.30;;;18.10;66.60;;;;;;6202300;23;20187;-80
2023/11/12 02:55:51;;;;;;;1.10;1.00;;;18.20;66.60;;;;;;6203327;23;20163;-79
2023/11/12 02:58:18;;;;;;;1.20;1.10;;;18.20;66.50;;;;;;6153334;23;20204;-81
2023/11/12 03:00:44;;;;;;;1.40;1.30;;;18.20;66.50;;;;;;6203114;23;20133;-80
2023/11/12 03:03:12;;;;;;;1.30;0.98;;;18.20;66.50;;;;;;6102207;23;20197;-80
2023/11/12 03:05:38;;;;;;;1.17;1.08;;;18.20;66.50;;;;;;6155493;23;20156;-79
2023/11/12 03:08:04;;;;;;;1.23;1.15;;;18.20;66.40;;;;;;6202849;23;20231;-80
2023/11/12 03:10:32;;;;;;;1.00;0.90;;;18.20;66.50;;;;;;6202157;23;20141;-80
2023/11/12 03:13:00;;;;;;;1.40;1.30;;;18.10;66.50;;;;;;6201652;23;20215;-81
2023/11/12 03:15:25;;;;;;;1.40;1.30;;;18.10;66.70;;;;;;6101811;23;20149;-80
2023/11/12 03:17:52;;;;;;;1.20;1.10;;;18.10;66.70;;;;;;6177190;23;20484;-83
2023/11/12 03:20:18;;;;;;;1.42;1.10;;;18.10;66.70;;;;;;6101244;23;20137;-82
2023/11/12 03:22:49;;;;;;;1.30;1.20;;;18.10;66.60;;;;;;6178398;23;20260;-81
2023/11/12 03:25:15;;;;;;;1.17;1.08;;;18.10;66.70;;;;;;6151619;23;20168;-80
2023/11/12 03:27:48;;;;;;;1.52;1.10;;;18.10;66.70;;;;;;6202919;23;20156;-83
2023/11/12 03:30:14;;;;;;;0.95;0.95;;;18.10;66.70;;;;;;6175632;23;20156;-80
2023/11/12 03:32:40;;;;;;;1.15;1.05;;;18.20;66.70;;;;;;6222289;23;20201;-83
2023/11/12 03:35:06;;;;;;;1.00;0.90;;;18.10;66.90;;;;;;6222463;23;20224;-80
2023/11/12 03:37:33;;;;;;;1.30;1.20;;;18.10;66.90;;;;;;6222428;23;20141;-80
2023/11/12 03:40:04;;;;;;;1.30;1.20;;;18.10;66.70;;;;;;6197574;23;20142;-81
2023/11/12 03:42:31;;;;;;;1.10;1.00;;;18.10;66.80;;;;;;6196075;23;20161;-82
2023/11/12 03:44:57;;;;;;;1.10;1.00;;;18.10;66.70;;;;;;6224277;23;20134;-81
2023/11/12 03:47:24;;;;;;;1.30;1.20;;;18.10;66.80;;;;;;6197050;23;20142;-80
2023/11/12 03:49:55;;;;;;;1.05;1.00;;;18.10;66.80;;;;;;6224454;23;20528;-80
2023/11/12 03:52:21;;;;;;;0.90;0.90;;;18.10;66.70;;;;;;6172624;23;20154;-80
2023/11/12 03:54:47;;;;;;;1.30;1.20;;;18.10;66.70;;;;;;6223577;23;20157;-80
2023/11/12 03:57:14;;;;;;;1.67;1.30;;;18.10;66.80;;;;;;6197680;23;20165;-80
2023/11/12 03:59:40;;;;;;;1.20;1.10;;;18.10;66.90;;;;;;6222113;23;20224;-81
2023/11/12 04:02:10;;;;;;;1.20;1.10;;;18.10;66.90;;;;;;6223720;23;20223;-80
2023/11/12 04:04:35;;;;;;;0.95;0.85;;;18.10;67.10;;;;;;6196782;23;20304;-80
2023/11/12 04:07:02;;;;;;;1.05;0.95;;;18.10;66.80;;;;;;6223217;23;20551;-80
2023/11/12 04:09:27;;;;;;;1.05;1.00;;;18.10;66.80;;;;;;6223729;23;20162;-80
2023/11/12 04:11:53;;;;;;;1.40;1.30;;;18.10;67.00;;;;;;6223433;23;20153;-81
2023/11/12 04:14:21;;;;;;;1.13;1.02;;;18.10;67.00;;;;;;6222193;23;20264;-80
2023/11/12 04:16:50;;;;;;;1.20;1.10;;;18.10;66.80;;;;;;6173161;23;20145;-80
2023/11/12 04:19:16;;;;;;;1.27;1.00;;;18.10;66.90;;;;;;6223057;23;20172;-80
2023/11/12 04:21:48;;;;;;;1.10;1.00;;;18.10;66.90;;;;;;6224557;23;20130;-81
2023/11/12 04:24:14;;;;;;;1.20;1.10;;;18.10;66.70;;;;;;6198433;23;20149;-80
2023/11/12 04:26:40;;;;;;;1.23;1.20;;;18.10;66.70;;;;;;6223637;23;20195;-81
2023/11/12 04:29:07;;;;;;;1.10;1.00;;;18.10;66.90;;;;;;6224450;23;20474;-81
2023/11/12 04:31:38;;;;;;;0.90;0.90;;;18.10;66.80;;;;;;6223071;23;20137;-81
2023/11/12 04:34:10;;;;;;;1.30;1.20;;;18.10;66.80;;;;;;6147674;23;20194;-80
2023/11/12 04:36:36;;;;;;;1.20;1.10;;;18.10;66.90;;;;;;6201339;23;20177;-80
2023/11/12 04:39:02;;;;;;;1.00;1.00;;;18.10;66.90;;;;;;6228056;23;20161;-79
2023/11/12 04:41:28;;;;;;;1.30;1.10;;;18.10;66.90;;;;;;6228366;23;20199;-79
2023/11/12 04:43:54;;;;;;;1.00;0.90;;;18.10;66.90;;;;;;6253125;23;20142;-80
2023/11/12 04:46:20;;;;;;;1.35;0.95;;;18.10;66.90;;;;;;6177264;23;20154;-79
2023/11/12 04:48:46;;;;;;;1.20;1.10;;;18.10;66.80;;;;;;6177785;23;20217;-80
2023/11/12 04:51:12;;;;;;;1.10;1.00;;;18.10;66.80;;;;;;6179848;23;20146;-80
2023/11/12 04:53:42;;;;;;;1.10;1.00;;;18.10;66.90;;;;;;6204934;23;20571;-80
2023/11/12 04:56:09;;;;;;;1.20;1.10;;;18.00;66.90;;;;;;6229836;23;20213;-80
2023/11/12 04:58:34;;;;;;;1.02;0.93;;;18.00;67.00;;;;;;6204413;23;20190;-80
2023/11/12 05:01:06;;;;;;;1.20;1.05;;;18.00;66.90;;;;;;6180455;23;20138;-79
2023/11/12 05:03:34;;;;;;;0.93;0.90;;;18.10;67.00;;;;;;6178874;23;20154;-80
2023/11/12 05:06:05;;;;;;;1.20;1.02;;;18.00;66.90;;;;;;6230290;23;20156;-80
2023/11/12 05:08:31;;;;;;;0.98;0.90;;;18.00;66.80;;;;;;6203729;23;20154;-80
2023/11/12 05:11:00;;;;;;;1.17;1.05;;;18.10;66.90;;;;;;6179935;23;20206;-80
2023/11/12 05:13:28;;;;;;;1.08;0.98;;;18.00;67.10;;;;;;6179267;23;20146;-80
2023/11/12 05:15:54;;;;;;;1.25;1.15;;;18.00;67.00;;;;;;6204645;23;20138;-80
2023/11/12 05:18:22;;;;;;;1.30;1.20;;;18.10;66.90;;;;;;6179287;23;20190;-79
2023/11/12 05:20:48;;;;;;;1.30;1.20;;;18.00;66.80;;;;;;6229753;23;20191;-80
2023/11/12 05:23:14;;;;;;;0.93;0.90;;;18.00;66.90;;;;;;6204927;23;20138;-79
2023/11/12 05:25:45;;;;;;;1.17;1.08;;;18.00;67.00;;;;;;6205012;23;20158;-79
2023/11/12 05:28:11;;;;;;;1.15;1.05;;;18.00;67.00;;;;;;6232177;23;20131;-79
2023/11/12 05:30:41;;;;;;;1.13;1.02;;;18.00;67.00;;;;;;6204081;23;20177;-80
2023/11/12 05:33:07;;;;;;;1.30;1.17;;;18.00;67.00;;;;;;6202538;23;20201;-79
2023/11/12 05:35:33;;;;;;;1.08;0.95;;;18.00;67.00;;;;;;6204642;23;20177;-80
2023/11/12 05:38:00;;;;;;;0.80;0.80;;;18.00;66.90;;;;;;6229209;23;20225;-80
2023/11/12 05:40:31;;;;;;;1.20;1.10;;;18.00;67.00;;;;;;6204114;23;20142;-79
2023/11/12 05:42:57;;;;;;;1.23;1.13;;;18.00;66.90;;;;;;6154454;23;20157;-80
2023/11/12 05:45:25;;;;;;;1.33;1.20;;;18.00;66.90;;;;;;6204661;23;20208;-80
2023/11/12 05:47:52;;;;;;;1.10;1.00;;;18.00;66.80;;;;;;6204495;23;20198;-80
2023/11/12 05:50:18;;;;;;;1.45;1.20;;;18.00;66.80;;;;;;6229686;23;20134;-80
2023/11/12 05:52:43;;;;;;;1.20;1.10;;;18.00;66.90;;;;;;6204388;23;20486;-80
2023/11/12 05:55:10;;;;;;;1.00;0.90;;;18.00;66.90;;;;;;6229260;23;20174;-80
2023/11/12 05:57:36;;;;;;;0.80;0.80;;;18.00;67.00;;;;;;6179610;23;20142;-80
2023/11/12 06:00:07;;;;;;;0.90;0.90;;;18.00;66.90;;;;;;6178694;23;20142;-79
2023/11/12 06:02:34;;;;;;;1.20;1.05;;;18.10;66.70;;;;;;6180797;23;20142;-80
2023/11/12 06:05:06;;;;;;;1.10;0.80;;;18.00;66.90;;;;;;6178948;23;20150;-79
2023/11/12 06:07:33;;;;;;;1.40;1.30;;;18.00;66.80;;;;;;6205005;23;20135;-80
2023/11/12 06:09:59;;;;;;;1.25;1.00;;;18.00;66.90;;;;;;6204935;23;20138;-79
2023/11/12 06:12:26;;;;;;;1.35;1.20;;;18.00;66.80;;;;;;6204189;23;20134;-80
2023/11/12 06:14:52;;;;;;;0.80;0.80;;;18.00;66.80;;;;;;6179235;23;20142;-80
2023/11/12 06:17:18;;;;;;;0.93;0.90;;;18.10;67.00;;;;;;6178448;23;20165;-80
2023/11/12 06:19:43;;;;;;;1.15;1.02;;;18.00;66.90;;;;;;6229504;23;20222;-80
2023/11/12 06:22:13;;;;;;;1.30;1.20;;;18.00;67.00;;;;;;6203733;23;20157;-79
2023/11/12 06:24:40;;;;;;;0.90;0.90;;;18.00;67.10;;;;;;6178452;23;20161;-80
2023/11/12 06:27:06;;;;;;;0.93;0.93;;;18.00;66.90;;;;;;6227800;23;20134;-80
2023/11/12 06:29:31;;;;;;;1.02;0.93;;;18.00;67.10;;;;;;6203697;23;20142;-80
2023/11/12 06:31:57;;;;;;;1.20;1.10;;;18.00;67.00;;;;;;6193681;23;20145;-79
2023/11/12 06:34:24;;;;;;;1.10;1.00;;;18.00;66.90;;;;;;6158145;23;20190;-80
2023/11/12 06:36:50;;;;;;;1.00;1.00;;;18.00;67.00;;;;;;6182554;23;20142;-80
2023/11/12 06:39:21;;;;;;;0.90;0.90;;;18.00;67.00;;;;;;6159319;23;20210;-80
2023/11/12 06:41:51;;;;;;;0.82;0.80;;;18.00;66.90;;;;;;6156754;23;20152;-80
2023/11/12 06:44:18;;;;;;;1.10;1.00;;;18.00;66.90;;;;;;6180856;23;20178;-80
2023/11/12 06:46:48;;;;;;;1.08;1.08;;;18.00;66.90;;;;;;6183153;23;20161;-80
2023/11/12 06:49:18;;;;;;;1.10;1.00;;;18.00;66.70;;;;;;6157611;23;20157;-79
2023/11/12 06:51:45;;;;;;;1.13;0.93;;;18.00;67.00;;;;;;6132837;23;20179;-80
2023/11/12 06:54:12;;;;;;;1.00;1.00;;;18.00;67.00;;;;;;6157981;23;20177;-79
2023/11/12 06:56:43;;;;;;;1.00;1.00;;;18.00;66.90;;;;;;6183711;23;20206;-79
2023/11/12 06:59:08;;;;;;;1.27;1.17;;;18.00;67.00;;;;;;6157400;23;20185;-79
2023/11/12 07:01:34;;;;;;;1.30;1.17;;;18.00;67.00;;;;;;6183033;23;20137;-79
2023/11/12 07:04:02;;;;;;;1.10;1.00;;;18.00;67.00;;;;;;6183217;23;20160;-79
2023/11/12 07:06:28;;;;;;;1.23;1.13;;;18.00;67.00;;;;;;6158509;23;20160;-79
2023/11/12 07:08:56;;;;;;;1.20;1.10;;;18.00;66.80;;;;;;6183475;23;20141;-79
2023/11/12 07:11:23;;;;;;;0.90;0.90;;;18.00;66.90;;;;;;6183552;23;20137;-80
2023/11/12 07:13:50;;;;;;;1.20;1.10;;;18.00;67.00;;;;;;6182796;23;20555;-80
2023/11/12 07:16:19;;;;;;;0.98;0.98;;;18.00;66.90;;;;;;6182597;23;20160;-80
2023/11/12 07:18:45;;;;;;;1.23;1.10;;;18.00;67.10;;;;;;6207739;23;20165;-80
2023/11/12 07:21:25;;;;;;;1.30;1.20;;;18.00;67.00;;;;;;6158273;23;20152;-79
2023/11/12 07:23:57;;;;;;;1.30;1.20;;;18.00;66.80;;;;;;6137848;23;20163;-79
2023/11/12 07:26:28;;;;;;;0.80;0.80;;;18.00;66.90;;;;;;6158336;23;20184;-79
2023/11/12 07:28:54;;;;;;;1.20;1.10;;;18.00;66.90;;;;;;6182689;23;20169;-79
2023/11/12 07:31:23;;;;;;;1.15;1.05;;;18.00;67.00;;;;;;6207709;23;20133;-79
2023/11/12 07:33:49;;;;;;;1.30;1.20;;;17.90;67.00;;;;;;6133274;23;20216;-79
2023/11/12 07:36:16;;;;;;;1.17;1.00;;;17.90;67.10;;;;;;6106283;23;20137;-79
2023/11/12 07:38:48;;;;;;;1.00;1.00;;;18.00;67.00;;;;;;6106550;23;20176;-80
2023/11/12 07:41:14;;;;;;;1.40;1.05;;;17.90;67.20;;;;;;6157170;23;20149;-79
2023/11/12 07:43:40;;;;;;;1.00;1.00;;;18.00;67.20;;;;;;6207229;23;20165;-80
2023/11/12 07:46:12;;;;;;;1.00;1.00;;;18.00;67.00;;;;;;6182479;23;20141;-79
2023/11/12 07:48:37;;;;;;;1.10;1.00;;;17.90;67.00;;;;;;6146977;23;20154;-79
2023/11/12 07:51:05;;;;;;;2.08;1.00;;;18.00;67.00;;;;;;6196620;23;20237;-81
2023/11/12 07:53:31;;;;;;;1.23;1.13;;;17.90;67.00;;;;;;6168372;23;20155;-81
2023/11/12 07:55:57;;;;;;;0.90;0.90;;;18.00;66.70;;;;;;6166630;23;20848;-81
2023/11/12 07:58:26;;;;;;;1.08;1.00;;;18.10;66.60;;;;;;6143330;23;20174;-81
2023/11/12 08:00:51;;;;;;;0.85;0.85;;;18.10;66.50;;;;;;6192874;23;20130;-82
2023/11/12 08:03:35;;;;;;;1.10;1.00;;;18.20;65.90;;;;;;6196999;23;20154;-82
2023/11/12 08:06:03;;;;;;;1.10;1.00;;;18.20;66.00;;;;;;6171171;23;20190;-81
2023/11/12 08:08:30;;;;;;;2.08;0.80;;;18.20;65.40;;;;;;6194785;23;20179;-82
2023/11/12 08:10:59;;;;;;;1.00;0.90;;;18.30;65.90;;;;;;6114437;23;20159;-82
2023/11/12 08:13:27;;;;;;;3.33;0.98;;;18.40;64.90;;;;;;6186797;23;20586;-82
2023/11/12 08:15:56;;;;;;;1.25;0.80;;;18.40;64.90;;;;;;6188933;23;20139;-81
2023/11/12 08:18:22;;;;;;;1.50;0.80;;;18.50;63.90;;;;;;6136912;23;20178;-83
2023/11/12 08:20:48;;;;;;;0.80;0.80;;;18.60;63.90;;;;;;6198172;23;20187;-82
2023/11/12 08:23:14;;;;;;;2.13;0.95;;;18.50;63.80;;;;;;6201605;23;20480;-81
2023/11/12 08:25:43;;;;;;;1.10;0.75;;;18.60;63.60;;;;;;6151171;23;20145;-83
2023/11/12 08:28:12;;;;;;;1.80;0.75;;;18.50;63.90;;;;;;6153904;23;20156;-83
2023/11/12 08:30:38;;;;;;;2.50;0.80;;;18.60;63.90;;;;;;6178949;23;20137;-81
2023/11/12 08:33:08;;;;;;;1.02;0.80;;;18.50;63.70;;;;;;6175438;23;20199;-80
2023/11/12 08:35:33;;;;;;;1.85;0.70;;;18.60;63.20;;;;;;6176009;23;20207;-83
2023/11/12 08:38:24;;;;;;;2.60;0.80;;;18.60;63.60;;;;;;6106470;23;20168;-85
2023/11/12 08:40:54;;;;;;;8.00;1.10;;;18.60;63.90;;;;;;6152282;23;20160;-81
2023/11/12 08:43:20;;;;;;;4.70;1.13;;;18.60;64.40;;;;;;6099865;23;20145;-82
2023/11/12 08:45:48;;;;;;;3.92;1.17;;;18.70;64.10;;;;;;6177938;23;20140;-81
2023/11/12 08:48:32;;;;;;;3.92;1.15;;;18.60;64.80;;;;;;6128505;23;20156;-82
2023/11/12 08:50:59;;;;;;;3.03;1.05;;;18.70;64.50;;;;;;6191897;23;20221;-81
2023/11/12 08:53:36;;;;;;;5.30;0.90;;;18.60;64.50;;;;;;6106912;23;20156;-80
2023/11/12 08:56:02;;;;;;;1.48;0.90;;;18.60;65.70;;;;;;6207664;23;20148;-80
2023/11/12 08:58:30;;;;;;;2.33;0.80;;;18.70;65.30;;;;;;6177418;23;20178;-81
2023/11/12 09:00:57;;;;;;;4.38;0.77;;;18.60;64.90;;;;;;6177517;23;20150;-81
2023/11/12 09:03:26;;;;;;;6.63;1.13;;;18.70;63.80;;;;;;6151197;23;20661;-81
2023/11/12 09:05:59;;;;;;;8.60;1.20;;;18.70;63.70;;;;;;6180291;23;20153;-83
2023/11/12 09:08:39;;;;;;;4.97;1.08;;;18.80;64.30;;;;;;6206524;23;20200;-84
2023/11/12 09:11:13;;;;;;;12.80;1.58;;;18.80;64.20;;;;;;6091051;23;20235;-83
2023/11/12 09:13:47;;;;;;;7.53;1.08;;;18.80;64.50;;;;;;6033637;23;20192;-81
2023/11/12 09:16:13;;;;;;;8.60;1.73;;;18.80;63.90;;;;;;6057251;23;20158;-80
2023/11/12 09:18:53;;;;;;;12.52;1.38;;;18.90;63.60;;;;;;6038859;23;20196;-81
2023/11/12 09:21:23;;;;;;;11.65;1.23;;;18.90;64.00;;;;;;6061407;23;20221;-80
2023/11/12 09:23:55;;;;;;;10.10;1.50;;;18.90;63.90;;;;;;6036404;23;20157;-80
2023/11/12 09:26:23;;;;;;;11.82;1.40;;;18.90;64.00;;;;;;6037094;23;20157;-81
2023/11/12 09:28:59;;;;;;;8.30;1.35;;;18.90;64.00;;;;;;6067149;23;20149;-82
2023/11/12 09:31:26;;;;;;;6.70;1.10;;;18.90;64.00;;;;;;6038346;23;20153;-81
2023/11/12 09:34:14;;;;;;;11.52;1.60;;;18.90;63.80;;;;;;6086893;23;20221;-81
2023/11/12 09:36:41;;;;;;;5.22;1.20;;;18.90;64.20;;;;;;6068238;23;20580;-81
2023/11/12 09:39:23;;;;;;;4.53;0.93;;;18.90;64.20;;;;;;6089092;23;20648;-80
2023/11/12 09:41:53;;;;;;;8.18;1.38;;;18.90;64.60;;;;;;6071128;23;20179;-81
2023/11/12 09:44:22;;;;;;;10.23;1.10;;;18.80;64.30;;;;;;6120312;23;20223;-80
2023/11/12 09:47:23;;;;;;;3.90;0.75;;;18.90;63.80;;;;;;6119095;23;20144;-81
2023/11/12 09:49:50;;;;;;;5.47;1.15;;;18.90;64.00;;;;;;6165244;23;20242;-83
2023/11/12 09:52:16;;;;;;;8.95;0.98;;;18.90;64.50;;;;;;6119660;23;20215;-81
2023/11/12 09:54:44;;;;;;;7.82;1.52;;;18.90;64.60;;;;;;6143336;23;20151;-82
2023/11/12 09:57:16;;;;;;;7.35;1.27;;;18.90;64.80;;;;;;6131181;23;20156;-81
2023/11/12 09:59:51;;;;;;;9.18;1.23;;;18.90;64.60;;;;;;6165702;23;20181;-82
2023/11/12 10:02:19;;;;;;;6.20;1.00;;;18.80;64.10;;;;;;6157857;23;20175;-81
2023/11/12 10:04:56;;;;;;;10.63;1.08;;;18.80;64.40;;;;;;6228320;23;20158;-82
2023/11/12 10:07:24;;;;;;;13.15;1.02;;;18.90;64.80;;;;;;6179403;23;20149;-78
2023/11/12 10:09:55;;;;;;;11.52;1.40;;;18.80;64.60;;;;;;6177115;23;20181;-80
2023/11/12 10:12:21;;;;;;;13.90;1.25;;;18.80;65.20;;;;;;6202040;23;20155;-79
2023/11/12 10:15:08;;;;;;;13.45;1.33;;;18.80;64.80;;;;;;6203197;23;20154;-79
2023/11/12 10:17:47;;;;;;;7.97;1.00;;;18.80;65.00;;;;;;6226565;23;20154;-79
2023/11/12 10:20:26;;;;;;;5.85;1.23;;;18.80;65.20;;;;;;6027966;23;20157;-80
2023/11/12 10:22:53;;;;;;;3.55;1.17;;;18.80;65.40;;;;;;6227294;23;20168;-78
2023/11/12 10:25:35;;;;;;;5.75;0.95;;;18.70;65.20;;;;;;6176896;23;20162;-79
2023/11/12 10:28:04;;;;;;;5.15;1.00;;;18.70;64.60;;;;;;6201648;23;20224;-78
2023/11/12 10:30:31;;;;;;;7.25;1.15;;;18.70;64.30;;;;;;6201711;23;20188;-80
2023/11/12 10:33:23;;;;;;;11.25;1.30;;;18.70;65.20;;;;;;6074263;23;20620;-79
2023/11/12 10:35:49;;;;;;;12.80;1.23;;;18.70;65.10;;;;;;6066784;23;20244;-79
2023/11/12 10:38:17;;;;;;;11.70;1.98;;;18.70;64.50;;;;;;6044156;23;20185;-81
2023/11/12 10:41:02;;;;;;;6.40;1.27;;;18.70;65.20;;;;;;6018702;23;20148;-80
2023/11/12 10:43:33;;;;;;;7.35;1.05;;;18.70;65.00;;;;;;6043634;23;20148;-80
2023/11/12 10:46:00;;;;;;;7.65;1.20;;;18.60;64.80;;;;;;6121114;23;20531;-81
2023/11/12 10:48:33;;;;;;;8.93;1.48;;;18.70;64.30;;;;;;6046969;23;20142;-78
2023/11/12 10:51:05;;;;;;;9.70;1.10;;;18.70;63.80;;;;;;6146405;23;20207;-80
2023/11/12 10:53:31;;;;;;;12.23;1.40;;;18.70;64.80;;;;;;6144715;23;20157;-80
2023/11/12 10:56:05;;;;;;;18.30;1.60;;;18.60;65.20;;;;;;6024759;23;20190;-80
2023/11/12 10:58:32;;;;;;;8.50;1.38;;;18.70;65.00;;;;;;6050742;23;20177;-80
2023/11/12 11:01:00;;;;;;;6.03;1.23;;;18.70;64.50;;;;;;6002965;23;20206;-80
2023/11/12 11:03:28;;;;;;;7.40;1.23;;;18.80;64.20;;;;;;6018798;23;20211;-80
2023/11/12 11:06:02;;;;;;;8.05;1.40;;;18.80;64.70;;;;;;6118183;23;20216;-79
2023/11/12 11:08:30;;;;;;;7.60;1.40;;;18.80;64.10;;;;;;6093380;23;20168;-79
2023/11/12 11:11:02;;;;;;;6.78;1.30;;;18.80;63.70;;;;;;6144678;23;20154;-80
2023/11/12 11:13:33;;;;;;;6.40;1.20;;;18.80;63.30;;;;;;6071883;23;20158;-79
2023/11/12 11:16:07;;;;;;;7.00;1.80;;;18.70;62.90;;;;;;6095926;23;20652;-79
2023/11/12 11:18:46;;;;;;;4.93;1.27;;;18.80;63.00;;;;;;6087011;23;20311;-80
2023/11/12 11:21:13;;;;;;;6.53;1.33;;;18.80;62.70;;;;;;6134383;23;20224;-81
2023/11/12 11:23:52;;;;;;;5.90;1.27;;;18.80;63.60;;;;;;6009081;23;20177;-80
2023/11/12 11:26:27;;;;;;;8.05;1.40;;;18.80;63.40;;;;;;6124380;23;20546;-81
2023/11/12 11:29:09;;;;;;;5.70;1.20;;;18.80;63.10;;;;;;6107200;23;20165;-80
2023/11/12 11:31:42;;;;;;;4.68;1.23;;;18.70;64.10;;;;;;6031886;23;20153;-81
2023/11/12 11:34:12;;;;;;;7.40;1.70;;;18.70;64.10;;;;;;6143358;23;20283;-82
2023/11/12 11:36:40;;;;;;;5.40;1.40;;;18.80;63.70;;;;;;6167358;23;20213;-81
2023/11/12 11:39:25;;;;;;;6.65;1.30;;;18.70;63.80;;;;;;6191177;23;20172;-82
2023/11/12 11:42:11;;;;;;;11.65;1.70;;;18.70;63.60;;;;;;6166271;23;20176;-81
2023/11/12 11:44:42;;;;;;;4.43;1.40;;;18.70;63.20;;;;;;6190487;23;20162;-79
2023/11/12 11:47:16;;;;;;;5.13;1.35;;;18.70;63.80;;;;;;6165437;23;20283;-81
2023/11/12 11:49:49;;;;;;;5.78;1.30;;;18.70;63.30;;;;;;6090343;23;20224;-80
2023/11/12 11:52:17;;;;;;;7.63;1.63;;;18.70;63.90;;;;;;6089858;23;20469;-80
2023/11/12 11:54:43;;;;;;;8.35;1.58;;;18.70;64.40;;;;;;6165929;23;20521;-79
2023/11/12 11:57:09;;;;;;;13.35;1.67;;;18.70;63.70;;;;;;6191816;23;20210;-82
2023/11/12 11:59:35;;;;;;;9.95;1.50;;;18.70;64.60;;;;;;6167832;23;20168;-80
2023/11/12 12:02:15;;;;;;;8.10;1.50;;;18.70;64.50;;;;;;6192052;23;20167;-80
2023/11/12 12:04:50;;;;;;;15.07;1.70;;;18.70;64.50;;;;;;6169188;23;20219;-79
2023/11/12 12:07:25;;;;;;;15.55;1.67;;;18.70;65.20;;;;;;6166634;23;20140;-79
2023/11/12 12:09:52;;;;;;;9.13;1.23;;;18.70;64.50;;;;;;6190724;23;20137;-79
2023/11/12 12:12:18;;;;;;;14.05;1.20;;;18.60;64.20;;;;;;6143138;23;20153;-80
2023/11/12 12:14:47;;;;;;;6.63;1.50;;;18.70;64.80;;;;;;6192139;23;20152;-80
2023/11/12 12:17:13;;;;;;;8.52;1.55;;;18.70;64.10;;;;;;6118657;23;20160;-81
2023/11/12 12:19:40;;;;;;;7.85;1.30;;;18.70;63.50;;;;;;6168992;23;20172;-80
2023/11/12 12:22:06;;;;;;;7.10;1.40;;;18.70;63.90;;;;;;6168515;23;20339;-80
2023/11/12 12:24:34;;;;;;;2.88;1.10;;;18.70;64.30;;;;;;6168432;23;20141;-81
2023/11/12 12:27:05;;;;;;;8.93;1.17;;;18.70;63.90;;;;;;6170029;23;20133;-81
2023/11/12 12:29:31;;;;;;;6.38;1.27;;;18.70;64.10;;;;;;6149673;23;20184;-81
2023/11/12 12:31:58;;;;;;;6.50;1.33;;;18.70;64.10;;;;;;6173644;23;20145;-80
2023/11/12 12:34:24;;;;;;;7.30;1.33;;;18.70;63.80;;;;;;6098476;23;20145;-81
2023/11/12 12:37:07;;;;;;;6.78;1.30;;;18.70;64.60;;;;;;6198215;23;20199;-81
2023/11/12 12:39:52;;;;;;;6.80;1.27;;;18.70;65.00;;;;;;6192429;23;20176;-81
2023/11/12 12:42:20;;;;;;;6.93;1.65;;;18.70;64.20;;;;;;6172430;23;20129;-81
2023/11/12 12:44:47;;;;;;;5.82;1.17;;;18.70;63.60;;;;;;6174465;23;20149;-81
2023/11/12 12:47:29;;;;;;;3.78;1.10;;;18.70;64.00;;;;;;6097167;23;20129;-81
2023/11/12 12:49:59;;;;;;;3.30;1.45;;;18.70;63.70;;;;;;6194993;23;20156;-81
2023/11/12 12:52:25;;;;;;;7.85;1.35;;;18.70;61.30;;;;;;6172946;23;20176;-81
2023/11/12 12:54:53;;;;;;;7.93;1.45;;;18.60;62.10;;;;;;6194232;23;20579;-82